sensor_id;sensor_type;location;lat;lon;timestamp;P1;durP1;ratioP1;P2;durP2;ratioP2
78854;SDS011;68206;59.956;30.234;2023-03-21T00:00:52;17.92;;;8.98;;
78854;SDS011;68206;59.956;30.234;2023-03-21T00:03:21;16.45;;;9.00;;
78854;SDS011;68206;59.956;30.234;2023-03-21T00:05:49;18.25;;;9.02;;
78854;SDS011;68206;59.956;30.234;2023-03-21T00:08:19;17.63;;;8.45;;
78854;SDS011;68206;59.956;30.234;2023-03-21T00:10:55;16.52;;;8.32;;
78854;SDS011;68206;59.956;30.234;2023-03-21T00:13:25;15.50;;;8.15;;
78854;SDS011;68206;59.956;30.234;2023-03-21T00:18:37;17.23;;;8.23;;
78854;SDS011;68206;59.956;30.234;2023-03-21T00:21:09;14.80;;;7.53;;
78854;SDS011;68206;59.956;30.234;2023-03-21T00:24:00;15.88;;;7.50;;
78854;SDS011;68206;59.956;30.234;2023-03-21T00:26:30;15.00;;;7.40;;
78854;SDS011;68206;59.956;30.234;2023-03-21T00:28:59;17.80;;;8.60;;
78854;SDS011;68206;59.956;30.234;2023-03-21T00:31:27;17.48;;;8.43;;
78854;SDS011;68206;59.956;30.234;2023-03-21T00:33:55;14.68;;;7.63;;
78854;SDS011;68206;59.956;30.234;2023-03-21T00:36:23;16.30;;;7.72;;
78854;SDS011;68206;59.956;30.234;2023-03-21T00:38:52;15.48;;;7.97;;
78854;SDS011;68206;59.956;30.234;2023-03-21T00:41:20;17.25;;;7.72;;
78854;SDS011;68206;59.956;30.234;2023-03-21T00:44:08;18.65;;;8.30;;
78854;SDS011;68206;59.956;30.234;2023-03-21T00:46:39;18.10;;;8.38;;
78854;SDS011;68206;59.956;30.234;2023-03-21T00:49:26;14.65;;;7.60;;
78854;SDS011;68206;59.956;30.234;2023-03-21T00:52:01;13.13;;;7.50;;
78854;SDS011;68206;59.956;30.234;2023-03-21T00:54:50;13.65;;;7.18;;
78854;SDS011;68206;59.956;30.234;2023-03-21T00:57:18;15.57;;;7.57;;
78854;SDS011;68206;59.956;30.234;2023-03-21T01:00:04;14.32;;;6.93;;
78854;SDS011;68206;59.956;30.234;2023-03-21T01:02:34;12.85;;;6.68;;
78854;SDS011;68206;59.956;30.234;2023-03-21T01:05:05;15.45;;;7.93;;
78854;SDS011;68206;59.956;30.234;2023-03-21T01:07:34;11.85;;;6.50;;
78854;SDS011;68206;59.956;30.234;2023-03-21T01:10:04;12.38;;;6.85;;
78854;SDS011;68206;59.956;30.234;2023-03-21T01:12:33;12.27;;;6.20;;
78854;SDS011;68206;59.956;30.234;2023-03-21T01:15:02;11.43;;;6.13;;
78854;SDS011;68206;59.956;30.234;2023-03-21T01:17:32;12.20;;;6.38;;
78854;SDS011;68206;59.956;30.234;2023-03-21T01:20:00;12.32;;;6.88;;
78854;SDS011;68206;59.956;30.234;2023-03-21T01:22:31;13.00;;;7.03;;
78854;SDS011;68206;59.956;30.234;2023-03-21T01:24:59;10.80;;;5.32;;
78854;SDS011;68206;59.956;30.234;2023-03-21T01:27:46;11.77;;;5.47;;
78854;SDS011;68206;59.956;30.234;2023-03-21T01:30:16;10.13;;;5.20;;
78854;SDS011;68206;59.956;30.234;2023-03-21T01:32:49;8.02;;;4.32;;
78854;SDS011;68206;59.956;30.234;2023-03-21T01:35:17;8.82;;;4.75;;
78854;SDS011;68206;59.956;30.234;2023-03-21T01:37:45;9.63;;;4.97;;
78854;SDS011;68206;59.956;30.234;2023-03-21T01:40:15;8.57;;;4.80;;
78854;SDS011;68206;59.956;30.234;2023-03-21T01:42:45;9.32;;;5.75;;
78854;SDS011;68206;59.956;30.234;2023-03-21T01:48:29;4.78;;;2.60;;
78854;SDS011;68206;59.956;30.234;2023-03-21T01:50:58;3.53;;;2.05;;
78854;SDS011;68206;59.956;30.234;2023-03-21T01:53:49;2.20;;;1.60;;
78854;SDS011;68206;59.956;30.234;2023-03-21T01:56:18;2.58;;;1.67;;
78854;SDS011;68206;59.956;30.234;2023-03-21T01:58:55;1.40;;;1.27;;
78854;SDS011;68206;59.956;30.234;2023-03-21T02:01:54;1.80;;;1.30;;
78854;SDS011;68206;59.956;30.234;2023-03-21T02:04:28;1.75;;;1.30;;
78854;SDS011;68206;59.956;30.234;2023-03-21T02:07:12;1.77;;;1.40;;
78854;SDS011;68206;59.956;30.234;2023-03-21T02:09:51;2.13;;;1.40;;
78854;SDS011;68206;59.956;30.234;2023-03-21T02:12:21;3.83;;;1.50;;
78854;SDS011;68206;59.956;30.234;2023-03-21T02:14:50;2.08;;;1.40;;
78854;SDS011;68206;59.956;30.234;2023-03-21T02:17:50;3.13;;;1.48;;
78854;SDS011;68206;59.956;30.234;2023-03-21T02:24:10;1.52;;;1.17;;
78854;SDS011;68206;59.956;30.234;2023-03-21T02:26:54;1.50;;;1.38;;
78854;SDS011;68206;59.956;30.234;2023-03-21T02:29:39;1.35;;;1.23;;
78854;SDS011;68206;59.956;30.234;2023-03-21T02:32:51;1.98;;;1.45;;
78854;SDS011;68206;59.956;30.234;2023-03-21T02:35:33;1.77;;;1.23;;
78854;SDS011;68206;59.956;30.234;2023-03-21T02:38:23;1.73;;;1.10;;
78854;SDS011;68206;59.956;30.234;2023-03-21T02:40:59;1.30;;;0.90;;
78854;SDS011;68206;59.956;30.234;2023-03-21T02:43:45;2.03;;;1.20;;
78854;SDS011;68206;59.956;30.234;2023-03-21T02:46:18;2.70;;;1.20;;
78854;SDS011;68206;59.956;30.234;2023-03-21T02:49:00;1.20;;;1.10;;
78854;SDS011;68206;59.956;30.234;2023-03-21T02:51:34;2.65;;;1.13;;
78854;SDS011;68206;59.956;30.234;2023-03-21T02:54:08;0.93;;;0.85;;
78854;SDS011;68206;59.956;30.234;2023-03-21T02:56:59;1.33;;;1.02;;
78854;SDS011;68206;59.956;30.234;2023-03-21T02:59:30;2.05;;;1.17;;
78854;SDS011;68206;59.956;30.234;2023-03-21T03:02:15;1.05;;;0.90;;
78854;SDS011;68206;59.956;30.234;2023-03-21T03:04:47;1.25;;;0.80;;
78854;SDS011;68206;59.956;30.234;2023-03-21T03:07:20;1.70;;;1.15;;
78854;SDS011;68206;59.956;30.234;2023-03-21T03:10:10;1.27;;;1.00;;
78854;SDS011;68206;59.956;30.234;2023-03-21T03:12:53;1.55;;;1.05;;
78854;SDS011;68206;59.956;30.234;2023-03-21T03:15:32;1.05;;;0.93;;
78854;SDS011;68206;59.956;30.234;2023-03-21T03:18:12;0.85;;;0.85;;
78854;SDS011;68206;59.956;30.234;2023-03-21T03:20:48;1.05;;;0.95;;
78854;SDS011;68206;59.956;30.234;2023-03-21T03:23:26;1.25;;;1.10;;
78854;SDS011;68206;59.956;30.234;2023-03-21T03:25:59;1.55;;;1.00;;
78854;SDS011;68206;59.956;30.234;2023-03-21T03:28:33;0.98;;;0.88;;
78854;SDS011;68206;59.956;30.234;2023-03-21T03:31:10;1.13;;;1.02;;
78854;SDS011;68206;59.956;30.234;2023-03-21T03:33:51;1.02;;;0.93;;
78854;SDS011;68206;59.956;30.234;2023-03-21T03:36:24;1.30;;;0.65;;
78854;SDS011;68206;59.956;30.234;2023-03-21T03:39:02;0.80;;;0.60;;
78854;SDS011;68206;59.956;30.234;2023-03-21T03:41:40;1.50;;;1.00;;
78854;SDS011;68206;59.956;30.234;2023-03-21T03:44:36;1.13;;;0.82;;
78854;SDS011;68206;59.956;30.234;2023-03-21T03:47:07;2.85;;;1.48;;
78854;SDS011;68206;59.956;30.234;2023-03-21T03:49:53;0.80;;;0.73;;
78854;SDS011;68206;59.956;30.234;2023-03-21T03:52:30;1.15;;;0.90;;
78854;SDS011;68206;59.956;30.234;2023-03-21T03:55:13;2.90;;;1.00;;
78854;SDS011;68206;59.956;30.234;2023-03-21T03:57:48;0.95;;;0.90;;
78854;SDS011;68206;59.956;30.234;2023-03-21T04:00:17;3.10;;;1.35;;
78854;SDS011;68206;59.956;30.234;2023-03-21T04:02:48;1.23;;;0.90;;
78854;SDS011;68206;59.956;30.234;2023-03-21T04:05:20;3.38;;;2.17;;
78854;SDS011;68206;59.956;30.234;2023-03-21T04:07:51;1.35;;;1.05;;
78854;SDS011;68206;59.956;30.234;2023-03-21T04:10:28;1.98;;;1.10;;
78854;SDS011;68206;59.956;30.234;2023-03-21T04:12:57;0.80;;;0.80;;
78854;SDS011;68206;59.956;30.234;2023-03-21T04:15:33;1.70;;;1.00;;
78854;SDS011;68206;59.956;30.234;2023-03-21T04:18:09;1.27;;;0.85;;
78854;SDS011;68206;59.956;30.234;2023-03-21T04:20:37;1.05;;;1.00;;
78854;SDS011;68206;59.956;30.234;2023-03-21T04:23:07;0.75;;;0.75;;
78854;SDS011;68206;59.956;30.234;2023-03-21T04:25:35;3.13;;;0.93;;
78854;SDS011;68206;59.956;30.234;2023-03-21T04:28:17;2.13;;;1.30;;
78854;SDS011;68206;59.956;30.234;2023-03-21T04:30:57;3.30;;;1.27;;
78854;SDS011;68206;59.956;30.234;2023-03-21T04:33:43;2.45;;;1.10;;
78854;SDS011;68206;59.956;30.234;2023-03-21T04:36:13;1.63;;;1.20;;
78854;SDS011;68206;59.956;30.234;2023-03-21T04:38:52;2.65;;;1.35;;
78854;SDS011;68206;59.956;30.234;2023-03-21T04:41:23;2.45;;;1.20;;
78854;SDS011;68206;59.956;30.234;2023-03-21T04:43:52;1.75;;;1.50;;
78854;SDS011;68206;59.956;30.234;2023-03-21T04:46:21;1.52;;;1.10;;
78854;SDS011;68206;59.956;30.234;2023-03-21T04:48:49;1.52;;;1.23;;
78854;SDS011;68206;59.956;30.234;2023-03-21T04:51:18;2.00;;;1.70;;
78854;SDS011;68206;59.956;30.234;2023-03-21T04:53:46;1.63;;;1.15;;
78854;SDS011;68206;59.956;30.234;2023-03-21T04:56:18;3.60;;;1.80;;
78854;SDS011;68206;59.956;30.234;2023-03-21T04:58:46;2.22;;;1.60;;
78854;SDS011;68206;59.956;30.234;2023-03-21T05:01:15;1.67;;;1.30;;
78854;SDS011;68206;59.956;30.234;2023-03-21T05:03:46;2.28;;;1.67;;
78854;SDS011;68206;59.956;30.234;2023-03-21T05:06:14;3.85;;;1.70;;
78854;SDS011;68206;59.956;30.234;2023-03-21T05:08:43;2.20;;;1.50;;
78854;SDS011;68206;59.956;30.234;2023-03-21T05:11:11;1.80;;;1.50;;
78854;SDS011;68206;59.956;30.234;2023-03-21T05:13:39;4.22;;;1.88;;
78854;SDS011;68206;59.956;30.234;2023-03-21T05:16:09;2.42;;;1.50;;
78854;SDS011;68206;59.956;30.234;2023-03-21T05:18:38;2.00;;;1.33;;
78854;SDS011;68206;59.956;30.234;2023-03-21T05:21:13;2.22;;;1.50;;
78854;SDS011;68206;59.956;30.234;2023-03-21T05:23:46;3.80;;;1.80;;
78854;SDS011;68206;59.956;30.234;2023-03-21T05:29:09;3.88;;;1.80;;
78854;SDS011;68206;59.956;30.234;2023-03-21T05:31:37;2.92;;;1.80;;
78854;SDS011;68206;59.956;30.234;2023-03-21T05:34:11;3.03;;;2.03;;
78854;SDS011;68206;59.956;30.234;2023-03-21T05:36:40;2.72;;;1.85;;
78854;SDS011;68206;59.956;30.234;2023-03-21T05:39:10;2.53;;;1.83;;
78854;SDS011;68206;59.956;30.234;2023-03-21T05:41:44;4.20;;;1.90;;
78854;SDS011;68206;59.956;30.234;2023-03-21T05:44:13;5.57;;;1.80;;
78854;SDS011;68206;59.956;30.234;2023-03-21T05:46:41;2.88;;;1.88;;
78854;SDS011;68206;59.956;30.234;2023-03-21T05:49:11;7.00;;;2.97;;
78854;SDS011;68206;59.956;30.234;2023-03-21T05:51:40;3.35;;;1.88;;
78854;SDS011;68206;59.956;30.234;2023-03-21T05:54:11;4.07;;;2.10;;
78854;SDS011;68206;59.956;30.234;2023-03-21T05:56:45;3.22;;;2.00;;
78854;SDS011;68206;59.956;30.234;2023-03-21T05:59:24;2.67;;;1.98;;
78854;SDS011;68206;59.956;30.234;2023-03-21T06:01:54;3.10;;;1.98;;
78854;SDS011;68206;59.956;30.234;2023-03-21T06:04:24;2.88;;;1.95;;
78854;SDS011;68206;59.956;30.234;2023-03-21T06:06:52;3.05;;;1.73;;
78854;SDS011;68206;59.956;30.234;2023-03-21T06:09:22;4.88;;;2.05;;
78854;SDS011;68206;59.956;30.234;2023-03-21T06:11:56;2.60;;;2.00;;
78854;SDS011;68206;59.956;30.234;2023-03-21T06:14:50;4.80;;;2.35;;
78854;SDS011;68206;59.956;30.234;2023-03-21T06:17:26;2.90;;;1.90;;
78854;SDS011;68206;59.956;30.234;2023-03-21T06:20:01;3.72;;;2.30;;
78854;SDS011;68206;59.956;30.234;2023-03-21T06:22:35;4.90;;;1.95;;
78854;SDS011;68206;59.956;30.234;2023-03-21T06:25:05;6.15;;;2.30;;
78854;SDS011;68206;59.956;30.234;2023-03-21T06:27:35;2.08;;;1.80;;
78854;SDS011;68206;59.956;30.234;2023-03-21T06:30:05;4.95;;;2.00;;
78854;SDS011;68206;59.956;30.234;2023-03-21T06:32:44;3.00;;;1.65;;
78854;SDS011;68206;59.956;30.234;2023-03-21T06:35:17;2.55;;;1.77;;
78854;SDS011;68206;59.956;30.234;2023-03-21T06:37:45;2.83;;;1.83;;
78854;SDS011;68206;59.956;30.234;2023-03-21T06:40:15;3.15;;;1.70;;
78854;SDS011;68206;59.956;30.234;2023-03-21T06:42:44;2.65;;;1.73;;
78854;SDS011;68206;59.956;30.234;2023-03-21T06:45:12;3.47;;;1.70;;
78854;SDS011;68206;59.956;30.234;2023-03-21T06:47:41;6.93;;;2.00;;
78854;SDS011;68206;59.956;30.234;2023-03-21T06:50:34;2.25;;;1.35;;
78854;SDS011;68206;59.956;30.234;2023-03-21T06:53:02;1.55;;;1.20;;
78854;SDS011;68206;59.956;30.234;2023-03-21T06:55:37;2.58;;;1.63;;
78854;SDS011;68206;59.956;30.234;2023-03-21T06:58:06;4.10;;;1.80;;
78854;SDS011;68206;59.956;30.234;2023-03-21T07:00:34;2.65;;;1.90;;
78854;SDS011;68206;59.956;30.234;2023-03-21T07:03:03;4.38;;;1.80;;
78854;SDS011;68206;59.956;30.234;2023-03-21T07:05:35;4.70;;;2.08;;
78854;SDS011;68206;59.956;30.234;2023-03-21T07:08:04;2.45;;;1.77;;
78854;SDS011;68206;59.956;30.234;2023-03-21T07:10:33;4.22;;;1.98;;
78854;SDS011;68206;59.956;30.234;2023-03-21T07:13:05;2.33;;;1.63;;
78854;SDS011;68206;59.956;30.234;2023-03-21T07:15:41;2.97;;;1.80;;
78854;SDS011;68206;59.956;30.234;2023-03-21T07:18:10;3.55;;;1.95;;
78854;SDS011;68206;59.956;30.234;2023-03-21T07:20:40;3.75;;;2.00;;
78854;SDS011;68206;59.956;30.234;2023-03-21T07:23:09;3.13;;;1.98;;
78854;SDS011;68206;59.956;30.234;2023-03-21T07:25:37;2.90;;;1.80;;
78854;SDS011;68206;59.956;30.234;2023-03-21T07:28:05;5.15;;;1.77;;
78854;SDS011;68206;59.956;30.234;2023-03-21T07:30:34;2.38;;;1.63;;
78854;SDS011;68206;59.956;30.234;2023-03-21T07:33:03;3.88;;;1.90;;
78854;SDS011;68206;59.956;30.234;2023-03-21T07:35:32;3.33;;;2.10;;
78854;SDS011;68206;59.956;30.234;2023-03-21T07:38:05;6.03;;;1.95;;
78854;SDS011;68206;59.956;30.234;2023-03-21T07:40:34;2.78;;;1.60;;
78854;SDS011;68206;59.956;30.234;2023-03-21T07:43:03;3.47;;;1.40;;
78854;SDS011;68206;59.956;30.234;2023-03-21T07:45:33;2.95;;;1.73;;
78854;SDS011;68206;59.956;30.234;2023-03-21T07:48:05;2.72;;;1.83;;
78854;SDS011;68206;59.956;30.234;2023-03-21T07:50:33;4.60;;;2.13;;
78854;SDS011;68206;59.956;30.234;2023-03-21T07:53:02;1.95;;;1.48;;
78854;SDS011;68206;59.956;30.234;2023-03-21T07:55:31;3.17;;;1.83;;
78854;SDS011;68206;59.956;30.234;2023-03-21T07:58:00;2.60;;;1.73;;
78854;SDS011;68206;59.956;30.234;2023-03-21T08:00:30;6.18;;;2.35;;
78854;SDS011;68206;59.956;30.234;2023-03-21T08:02:58;1.98;;;1.40;;
78854;SDS011;68206;59.956;30.234;2023-03-21T08:05:28;3.20;;;1.63;;
78854;SDS011;68206;59.956;30.234;2023-03-21T08:07:59;1.63;;;1.33;;
78854;SDS011;68206;59.956;30.234;2023-03-21T08:10:28;1.80;;;1.33;;
78854;SDS011;68206;59.956;30.234;2023-03-21T08:12:58;5.70;;;1.80;;
78854;SDS011;68206;59.956;30.234;2023-03-21T08:15:26;2.85;;;1.75;;
78854;SDS011;68206;59.956;30.234;2023-03-21T08:17:54;2.15;;;1.45;;
78854;SDS011;68206;59.956;30.234;2023-03-21T08:20:22;2.63;;;1.80;;
78854;SDS011;68206;59.956;30.234;2023-03-21T08:22:51;2.55;;;1.70;;
78854;SDS011;68206;59.956;30.234;2023-03-21T08:25:19;2.60;;;1.65;;
78854;SDS011;68206;59.956;30.234;2023-03-21T08:27:49;2.65;;;1.50;;
78854;SDS011;68206;59.956;30.234;2023-03-21T08:30:20;2.40;;;1.75;;
78854;SDS011;68206;59.956;30.234;2023-03-21T08:35:26;3.10;;;1.80;;
78854;SDS011;68206;59.956;30.234;2023-03-21T08:37:56;4.22;;;2.00;;
78854;SDS011;68206;59.956;30.234;2023-03-21T08:40:24;2.35;;;1.40;;
78854;SDS011;68206;59.956;30.234;2023-03-21T08:42:52;2.63;;;1.90;;
78854;SDS011;68206;59.956;30.234;2023-03-21T08:45:22;2.20;;;1.60;;
78854;SDS011;68206;59.956;30.234;2023-03-21T08:47:52;2.55;;;2.05;;
78854;SDS011;68206;59.956;30.234;2023-03-21T08:50:22;3.53;;;1.85;;
78854;SDS011;68206;59.956;30.234;2023-03-21T08:52:52;2.80;;;2.03;;
78854;SDS011;68206;59.956;30.234;2023-03-21T08:55:20;2.63;;;1.67;;
78854;SDS011;68206;59.956;30.234;2023-03-21T08:57:48;2.00;;;1.80;;
78854;SDS011;68206;59.956;30.234;2023-03-21T09:00:16;2.47;;;1.48;;
78854;SDS011;68206;59.956;30.234;2023-03-21T09:02:47;2.67;;;1.60;;
78854;SDS011;68206;59.956;30.234;2023-03-21T09:05:17;4.72;;;1.83;;
78854;SDS011;68206;59.956;30.234;2023-03-21T09:07:46;2.05;;;1.48;;
78854;SDS011;68206;59.956;30.234;2023-03-21T09:10:16;3.20;;;1.60;;
78854;SDS011;68206;59.956;30.234;2023-03-21T09:12:49;8.32;;;2.45;;
78854;SDS011;68206;59.956;30.234;2023-03-21T09:15:19;5.85;;;1.70;;
78854;SDS011;68206;59.956;30.234;2023-03-21T09:17:51;2.50;;;1.60;;
78854;SDS011;68206;59.956;30.234;2023-03-21T09:20:22;4.72;;;1.75;;
78854;SDS011;68206;59.956;30.234;2023-03-21T09:22:57;4.03;;;2.15;;
78854;SDS011;68206;59.956;30.234;2023-03-21T09:25:27;4.18;;;2.03;;
78854;SDS011;68206;59.956;30.234;2023-03-21T09:27:57;4.95;;;2.10;;
78854;SDS011;68206;59.956;30.234;2023-03-21T09:30:25;5.15;;;2.05;;
78854;SDS011;68206;59.956;30.234;2023-03-21T09:32:55;4.10;;;1.60;;
78854;SDS011;68206;59.956;30.234;2023-03-21T09:35:25;2.78;;;1.60;;
78854;SDS011;68206;59.956;30.234;2023-03-21T09:37:55;2.10;;;1.50;;
78854;SDS011;68206;59.956;30.234;2023-03-21T09:40:29;2.17;;;1.48;;
78854;SDS011;68206;59.956;30.234;2023-03-21T09:43:10;2.38;;;1.58;;
78854;SDS011;68206;59.956;30.234;2023-03-21T09:45:51;4.47;;;1.40;;
78854;SDS011;68206;59.956;30.234;2023-03-21T09:48:31;3.70;;;1.70;;
78854;SDS011;68206;59.956;30.234;2023-03-21T09:51:09;3.60;;;1.30;;
78854;SDS011;68206;59.956;30.234;2023-03-21T09:53:45;2.55;;;1.50;;
78854;SDS011;68206;59.956;30.234;2023-03-21T09:56:15;3.42;;;1.70;;
78854;SDS011;68206;59.956;30.234;2023-03-21T09:58:45;5.45;;;2.17;;
78854;SDS011;68206;59.956;30.234;2023-03-21T10:01:19;2.55;;;1.80;;
78854;SDS011;68206;59.956;30.234;2023-03-21T10:03:54;6.75;;;2.47;;
78854;SDS011;68206;59.956;30.234;2023-03-21T10:06:26;3.42;;;1.98;;
78854;SDS011;68206;59.956;30.234;2023-03-21T10:08:57;3.40;;;1.67;;
78854;SDS011;68206;59.956;30.234;2023-03-21T10:11:36;5.07;;;1.88;;
78854;SDS011;68206;59.956;30.234;2023-03-21T10:14:12;2.25;;;1.67;;
78854;SDS011;68206;59.956;30.234;2023-03-21T10:16:45;4.32;;;1.50;;
78854;SDS011;68206;59.956;30.234;2023-03-21T10:19:18;2.78;;;1.40;;
78854;SDS011;68206;59.956;30.234;2023-03-21T10:21:47;3.80;;;1.58;;
78854;SDS011;68206;59.956;30.234;2023-03-21T10:24:27;5.57;;;1.77;;
78854;SDS011;68206;59.956;30.234;2023-03-21T10:26:58;1.73;;;1.30;;
78854;SDS011;68206;59.956;30.234;2023-03-21T10:29:29;3.08;;;1.80;;
78854;SDS011;68206;59.956;30.234;2023-03-21T10:32:02;3.80;;;1.67;;
78854;SDS011;68206;59.956;30.234;2023-03-21T10:34:34;1.75;;;1.50;;
78854;SDS011;68206;59.956;30.234;2023-03-21T10:37:07;2.72;;;1.50;;
78854;SDS011;68206;59.956;30.234;2023-03-21T10:39:36;7.75;;;2.42;;
78854;SDS011;68206;59.956;30.234;2023-03-21T10:42:08;1.63;;;1.33;;
78854;SDS011;68206;59.956;30.234;2023-03-21T10:44:45;3.85;;;1.70;;
78854;SDS011;68206;59.956;30.234;2023-03-21T10:47:18;2.03;;;1.23;;
78854;SDS011;68206;59.956;30.234;2023-03-21T10:49:49;2.33;;;1.55;;
78854;SDS011;68206;59.956;30.234;2023-03-21T10:52:36;2.13;;;1.30;;
78854;SDS011;68206;59.956;30.234;2023-03-21T10:55:15;12.88;;;2.55;;
78854;SDS011;68206;59.956;30.234;2023-03-21T10:57:47;3.88;;;1.70;;
78854;SDS011;68206;59.956;30.234;2023-03-21T11:00:20;3.60;;;1.60;;
78854;SDS011;68206;59.956;30.234;2023-03-21T11:02:51;2.78;;;1.75;;
78854;SDS011;68206;59.956;30.234;2023-03-21T11:05:23;2.53;;;1.80;;
78854;SDS011;68206;59.956;30.234;2023-03-21T11:08:01;2.47;;;1.60;;
78854;SDS011;68206;59.956;30.234;2023-03-21T11:10:33;3.83;;;1.98;;
78854;SDS011;68206;59.956;30.234;2023-03-21T11:13:05;6.22;;;1.70;;
78854;SDS011;68206;59.956;30.234;2023-03-21T11:15:40;2.03;;;1.45;;
78854;SDS011;68206;59.956;30.234;2023-03-21T11:18:14;3.60;;;1.60;;
78854;SDS011;68206;59.956;30.234;2023-03-21T11:20:49;3.47;;;1.45;;
78854;SDS011;68206;59.956;30.234;2023-03-21T11:23:21;2.22;;;1.38;;
78854;SDS011;68206;59.956;30.234;2023-03-21T11:25:53;16.98;;;2.70;;
78854;SDS011;68206;59.956;30.234;2023-03-21T11:28:24;4.00;;;1.77;;
78854;SDS011;68206;59.956;30.234;2023-03-21T11:31:00;2.60;;;1.35;;
78854;SDS011;68206;59.956;30.234;2023-03-21T11:33:30;5.60;;;1.70;;
78854;SDS011;68206;59.956;30.234;2023-03-21T11:36:04;2.10;;;1.40;;
78854;SDS011;68206;59.956;30.234;2023-03-21T11:38:36;3.92;;;1.52;;
78854;SDS011;68206;59.956;30.234;2023-03-21T11:41:05;4.13;;;1.60;;
78854;SDS011;68206;59.956;30.234;2023-03-21T11:43:35;12.63;;;2.08;;
78854;SDS011;68206;59.956;30.234;2023-03-21T11:46:05;2.90;;;1.80;;
78854;SDS011;68206;59.956;30.234;2023-03-21T11:48:38;3.00;;;1.75;;
78854;SDS011;68206;59.956;30.234;2023-03-21T11:51:11;2.63;;;1.50;;
78854;SDS011;68206;59.956;30.234;2023-03-21T11:53:50;4.90;;;1.98;;
78854;SDS011;68206;59.956;30.234;2023-03-21T11:56:27;4.63;;;1.50;;
78854;SDS011;68206;59.956;30.234;2023-03-21T12:02:02;2.20;;;1.30;;
78854;SDS011;68206;59.956;30.234;2023-03-21T12:04:44;4.45;;;1.60;;
78854;SDS011;68206;59.956;30.234;2023-03-21T12:07:22;1.92;;;1.23;;
78854;SDS011;68206;59.956;30.234;2023-03-21T12:10:03;2.35;;;1.50;;
78854;SDS011;68206;59.956;30.234;2023-03-21T12:12:47;2.38;;;2.10;;
78854;SDS011;68206;59.956;30.234;2023-03-21T12:15:23;2.08;;;1.27;;
78854;SDS011;68206;59.956;30.234;2023-03-21T12:17:58;10.88;;;3.28;;
78854;SDS011;68206;59.956;30.234;2023-03-21T12:20:36;3.28;;;1.45;;
78854;SDS011;68206;59.956;30.234;2023-03-21T12:23:14;2.08;;;1.20;;
78854;SDS011;68206;59.956;30.234;2023-03-21T12:25:59;1.83;;;1.13;;
78854;SDS011;68206;59.956;30.234;2023-03-21T12:28:36;2.75;;;1.35;;
78854;SDS011;68206;59.956;30.234;2023-03-21T12:31:14;2.90;;;1.20;;
78854;SDS011;68206;59.956;30.234;2023-03-21T12:33:56;4.95;;;1.60;;
78854;SDS011;68206;59.956;30.234;2023-03-21T12:36:42;4.85;;;1.30;;
78854;SDS011;68206;59.956;30.234;2023-03-21T12:39:26;4.13;;;1.42;;
78854;SDS011;68206;59.956;30.234;2023-03-21T12:41:59;4.65;;;2.05;;
78854;SDS011;68206;59.956;30.234;2023-03-21T12:44:52;3.75;;;1.30;;
78854;SDS011;68206;59.956;30.234;2023-03-21T12:47:31;8.38;;;1.88;;
78854;SDS011;68206;59.956;30.234;2023-03-21T12:50:03;2.10;;;1.48;;
78854;SDS011;68206;59.956;30.234;2023-03-21T12:52:41;2.67;;;1.30;;
78854;SDS011;68206;59.956;30.234;2023-03-21T12:55:15;3.60;;;1.83;;
78854;SDS011;68206;59.956;30.234;2023-03-21T12:57:47;6.03;;;1.50;;
78854;SDS011;68206;59.956;30.234;2023-03-21T13:00:24;2.30;;;1.25;;
78854;SDS011;68206;59.956;30.234;2023-03-21T13:02:59;3.95;;;1.40;;
78854;SDS011;68206;59.956;30.234;2023-03-21T13:05:31;3.97;;;1.30;;
78854;SDS011;68206;59.956;30.234;2023-03-21T13:08:03;1.73;;;1.20;;
78854;SDS011;68206;59.956;30.234;2023-03-21T13:10:37;1.52;;;1.27;;
78854;SDS011;68206;59.956;30.234;2023-03-21T13:13:11;6.60;;;1.30;;
78854;SDS011;68206;59.956;30.234;2023-03-21T13:15:48;2.70;;;1.20;;
78854;SDS011;68206;59.956;30.234;2023-03-21T13:18:24;3.28;;;1.30;;
78854;SDS011;68206;59.956;30.234;2023-03-21T13:21:00;1.55;;;1.17;;
78854;SDS011;68206;59.956;30.234;2023-03-21T13:23:33;3.63;;;1.55;;
78854;SDS011;68206;59.956;30.234;2023-03-21T13:26:04;5.43;;;1.90;;
78854;SDS011;68206;59.956;30.234;2023-03-21T13:28:37;2.33;;;1.50;;
78854;SDS011;68206;59.956;30.234;2023-03-21T13:31:17;4.60;;;1.73;;
78854;SDS011;68206;59.956;30.234;2023-03-21T13:33:47;3.63;;;1.80;;
78854;SDS011;68206;59.956;30.234;2023-03-21T13:36:21;5.25;;;2.00;;
78854;SDS011;68206;59.956;30.234;2023-03-21T13:38:52;5.93;;;2.25;;
78854;SDS011;68206;59.956;30.234;2023-03-21T13:41:29;2.70;;;1.60;;
78854;SDS011;68206;59.956;30.234;2023-03-21T13:44:07;3.60;;;2.00;;
78854;SDS011;68206;59.956;30.234;2023-03-21T13:46:50;2.28;;;1.45;;
78854;SDS011;68206;59.956;30.234;2023-03-21T13:49:25;2.20;;;1.63;;
78854;SDS011;68206;59.956;30.234;2023-03-21T13:51:55;6.10;;;1.92;;
78854;SDS011;68206;59.956;30.234;2023-03-21T13:54:27;5.68;;;2.38;;
78854;SDS011;68206;59.956;30.234;2023-03-21T13:57:19;3.35;;;1.73;;
78854;SDS011;68206;59.956;30.234;2023-03-21T13:59:53;6.88;;;1.80;;
78854;SDS011;68206;59.956;30.234;2023-03-21T14:02:49;3.85;;;1.83;;
78854;SDS011;68206;59.956;30.234;2023-03-21T14:05:22;5.22;;;2.10;;
78854;SDS011;68206;59.956;30.234;2023-03-21T14:07:52;3.92;;;2.13;;
78854;SDS011;68206;59.956;30.234;2023-03-21T14:10:36;7.80;;;2.40;;
78854;SDS011;68206;59.956;30.234;2023-03-21T14:13:08;3.45;;;2.00;;
78854;SDS011;68206;59.956;30.234;2023-03-21T14:15:44;3.63;;;2.00;;
78854;SDS011;68206;59.956;30.234;2023-03-21T14:18:22;4.80;;;1.90;;
78854;SDS011;68206;59.956;30.234;2023-03-21T14:21:14;5.43;;;2.25;;
78854;SDS011;68206;59.956;30.234;2023-03-21T14:23:54;2.85;;;2.10;;
78854;SDS011;68206;59.956;30.234;2023-03-21T14:26:24;4.47;;;2.25;;
78854;SDS011;68206;59.956;30.234;2023-03-21T14:28:55;5.00;;;2.97;;
78854;SDS011;68206;59.956;30.234;2023-03-21T14:31:23;7.70;;;2.47;;
78854;SDS011;68206;59.956;30.234;2023-03-21T14:33:54;6.43;;;2.10;;
78854;SDS011;68206;59.956;30.234;2023-03-21T14:36:25;3.50;;;1.70;;
78854;SDS011;68206;59.956;30.234;2023-03-21T14:38:57;3.13;;;1.83;;
78854;SDS011;68206;59.956;30.234;2023-03-21T14:41:31;4.68;;;1.98;;
78854;SDS011;68206;59.956;30.234;2023-03-21T14:44:13;2.33;;;1.90;;
78854;SDS011;68206;59.956;30.234;2023-03-21T14:46:47;2.55;;;1.63;;
78854;SDS011;68206;59.956;30.234;2023-03-21T14:49:19;1.83;;;1.48;;
78854;SDS011;68206;59.956;30.234;2023-03-21T14:51:52;3.35;;;1.90;;
78854;SDS011;68206;59.956;30.234;2023-03-21T14:54:22;6.78;;;2.00;;
78854;SDS011;68206;59.956;30.234;2023-03-21T14:56:54;3.42;;;2.10;;
78854;SDS011;68206;59.956;30.234;2023-03-21T14:59:28;5.15;;;1.90;;
78854;SDS011;68206;59.956;30.234;2023-03-21T15:02:00;3.53;;;2.08;;
78854;SDS011;68206;59.956;30.234;2023-03-21T15:04:31;5.93;;;1.90;;
78854;SDS011;68206;59.956;30.234;2023-03-21T15:06:59;3.28;;;1.90;;
78854;SDS011;68206;59.956;30.234;2023-03-21T15:09:31;2.40;;;1.70;;
78854;SDS011;68206;59.956;30.234;2023-03-21T15:12:03;4.53;;;2.13;;
78854;SDS011;68206;59.956;30.234;2023-03-21T15:14:36;2.20;;;1.85;;
78854;SDS011;68206;59.956;30.234;2023-03-21T15:17:06;4.80;;;2.00;;
78854;SDS011;68206;59.956;30.234;2023-03-21T15:19:37;3.75;;;1.92;;
78854;SDS011;68206;59.956;30.234;2023-03-21T15:22:07;2.50;;;1.70;;
78854;SDS011;68206;59.956;30.234;2023-03-21T15:24:43;3.40;;;1.80;;
78854;SDS011;68206;59.956;30.234;2023-03-21T15:27:16;3.28;;;1.70;;
78854;SDS011;68206;59.956;30.234;2023-03-21T15:29:48;4.75;;;2.00;;